Terminal Aerodrome Forecast
Issued by NWS

Home | Current Version | Previous Version | Graphics & Text | Print | Product List | Glossary On
Versions: 1 2 3 4 5 6 7 8 9 10 11 12 13 14 15 16
453
FTUS43 KGRB 221547 AAB
TAFAUW
TAF AMD
KAUW 221547Z 2216/2312 30007KT P6SM SCT015 SCT035
     FM222100 23005KT P6SM BKN035
      TEMPO 2223/2301 5SM -TSRA BKN025CB
     FM230100 29005KT P6SM VCTS BKN035CB
     FM230400 30004KT 5SM BR VCSH BKN030
     FM230900 29004KT 3SM BR SCT030=

USA.gov is the U.S. government's official web portal to all federal, state and local government web resources and services.